createdAt,value
2023-02-17T00:01:33.738Z,100.00
2023-02-17T00:04:01.621Z,100.00
2023-02-17T00:06:30.937Z,100.00
2023-02-17T00:09:00.077Z,100.00
2023-02-17T00:11:28.548Z,100.00
2023-02-17T00:13:56.608Z,100.00
2023-02-17T00:16:27.103Z,100.00
2023-02-17T00:18:58.990Z,100.00
2023-02-17T00:21:29.912Z,100.00
2023-02-17T00:23:57.901Z,100.00
2023-02-17T00:26:25.051Z,100.00
2023-02-17T00:28:52.414Z,100.00
2023-02-17T00:31:23.113Z,100.00
2023-02-17T00:33:55.624Z,100.00
2023-02-17T00:36:23.458Z,100.00
2023-02-17T00:38:50.730Z,100.00
2023-02-17T00:41:19.430Z,100.00
2023-02-17T00:43:47.809Z,100.00
2023-02-17T00:46:17.746Z,100.00
2023-02-17T00:48:47.609Z,100.00
2023-02-17T00:51:16.977Z,100.00
2023-02-17T00:53:45.047Z,100.00
2023-02-17T00:56:12.613Z,100.00
2023-02-17T00:58:41.646Z,100.00
2023-02-17T01:01:10.478Z,100.00
2023-02-17T01:03:42.379Z,100.00
2023-02-17T01:06:17.191Z,100.00
2023-02-17T01:08:44.424Z,100.00
2023-02-17T01:11:26.018Z,100.00
2023-02-17T01:13:54.940Z,100.00
2023-02-17T01:16:29.442Z,100.00
2023-02-17T01:18:59.542Z,100.00
2023-02-17T01:21:28.901Z,100.00
2023-02-17T01:23:59.297Z,100.00
2023-02-17T01:26:28.730Z,100.00
2023-02-17T01:28:56.799Z,100.00
2023-02-17T01:31:27.271Z,100.00
2023-02-17T01:33:57.337Z,100.00
2023-02-17T01:36:25.296Z,100.00
2023-02-17T01:38:52.622Z,100.00
2023-02-17T01:41:28.572Z,100.00
2023-02-17T01:44:17.933Z,100.00
2023-02-17T01:46:48.993Z,100.00
2023-02-17T01:49:40.428Z,100.00
2023-02-17T01:52:21.368Z,100.00
2023-02-17T01:54:56.200Z,100.00
2023-02-17T01:57:30.381Z,100.00
2023-02-17T01:59:58.427Z,100.00
2023-02-17T02:02:26.027Z,100.00
2023-02-17T02:04:55.722Z,100.00
2023-02-17T02:07:36.001Z,100.00
2023-02-17T02:10:04.417Z,100.00
2023-02-17T02:12:35.599Z,100.00
2023-02-17T02:15:17.493Z,100.00
2023-02-17T02:18:42.207Z,100.00
2023-02-17T02:21:40.581Z,100.00
2023-02-17T02:24:23.645Z,100.00
2023-02-17T02:27:28.571Z,100.00
2023-02-17T02:30:44.716Z,100.00
2023-02-17T02:33:33.947Z,100.00
2023-02-17T02:36:10.999Z,100.00
2023-02-17T02:38:49.007Z,100.00
2023-02-17T02:41:48.311Z,100.00
2023-02-17T02:44:20.318Z,100.00
2023-02-17T02:46:58.848Z,100.00
2023-02-17T02:49:28.240Z,100.00
2023-02-17T02:52:17.446Z,100.00
2023-02-17T02:55:15.161Z,100.00
2023-02-17T02:58:03.666Z,100.00
2023-02-17T03:01:03.920Z,100.00
2023-02-17T03:04:06.510Z,100.00
2023-02-17T03:06:49.703Z,100.00
2023-02-17T03:09:27.955Z,100.00
2023-02-17T03:11:57.669Z,100.00
2023-02-17T03:14:28.679Z,100.00
2023-02-17T03:16:55.933Z,100.00
2023-02-17T03:19:26.053Z,100.00
2023-02-17T03:22:13.027Z,100.00
2023-02-17T03:24:40.472Z,100.00
2023-02-17T03:27:09.176Z,100.00
2023-02-17T03:29:36.456Z,100.00
2023-02-17T03:32:04.127Z,100.00
2023-02-17T03:34:31.525Z,100.00
2023-02-17T03:36:58.713Z,100.00
2023-02-17T03:39:26.020Z,100.00
2023-02-17T03:41:53.521Z,99.87
2023-02-17T03:44:21.230Z,99.71
2023-02-17T03:46:48.531Z,98.65
2023-02-17T03:49:16.031Z,98.10
2023-02-17T03:51:43.192Z,98.09
2023-02-17T03:54:10.536Z,96.33
2023-02-17T03:56:37.668Z,96.05
2023-02-17T03:59:05.574Z,95.89
2023-02-17T04:01:33.242Z,95.82
2023-02-17T04:04:00.669Z,96.31
2023-02-17T04:06:28.038Z,96.27
2023-02-17T04:08:55.228Z,96.55
2023-02-17T04:11:22.515Z,95.88
2023-02-17T04:13:49.690Z,95.45
2023-02-17T04:16:17.406Z,94.98
2023-02-17T04:18:44.715Z,96.25
2023-02-17T04:21:12.007Z,96.63
2023-02-17T04:23:39.458Z,96.72
2023-02-17T04:26:09.172Z,97.46
2023-02-17T04:28:39.684Z,98.44
2023-02-17T04:31:07.080Z,98.47
2023-02-17T04:33:35.237Z,100.00
2023-02-17T04:36:02.827Z,100.00
2023-02-17T04:38:32.143Z,100.00
2023-02-17T04:41:01.033Z,100.00
2023-02-17T04:43:29.211Z,100.00
2023-02-17T04:45:57.242Z,100.00
2023-02-17T04:48:25.650Z,100.00
2023-02-17T04:50:53.365Z,100.00
2023-02-17T04:53:20.909Z,100.00
2023-02-17T04:55:53.428Z,99.98
2023-02-17T04:58:21.901Z,99.63
2023-02-17T05:00:50.648Z,100.00
2023-02-17T05:03:19.443Z,99.18
2023-02-17T05:05:46.871Z,99.71
2023-02-17T05:08:14.145Z,99.32
2023-02-17T05:10:41.406Z,99.62
2023-02-17T05:13:08.591Z,99.04
2023-02-17T05:15:36.153Z,99.14
2023-02-17T05:18:03.850Z,97.80
2023-02-17T05:20:31.589Z,97.97
2023-02-17T05:22:58.906Z,97.45
2023-02-17T05:25:26.181Z,97.17
2023-02-17T05:27:53.470Z,96.17
2023-02-17T05:30:20.924Z,95.18
2023-02-17T05:32:48.308Z,94.20
2023-02-17T05:35:15.493Z,93.96
2023-02-17T05:37:42.764Z,94.26
2023-02-17T05:40:11.395Z,94.33
2023-02-17T05:42:39.085Z,94.26
2023-02-17T05:45:06.875Z,93.25
2023-02-17T05:47:35.686Z,93.23
2023-02-17T05:50:04.380Z,92.87
2023-02-17T05:52:32.588Z,93.11
2023-02-17T05:54:59.872Z,93.14
2023-02-17T05:57:27.661Z,93.69
2023-02-17T05:59:55.031Z,92.84
2023-02-17T06:02:22.409Z,91.97
2023-02-17T06:04:49.839Z,92.63
2023-02-17T06:07:18.308Z,92.62
2023-02-17T06:09:47.237Z,92.20
2023-02-17T06:12:14.670Z,91.66
2023-02-17T06:14:41.884Z,91.42
2023-02-17T06:17:09.206Z,91.12
2023-02-17T06:19:36.410Z,89.68
2023-02-17T06:22:03.675Z,89.87
2023-02-17T06:24:31.113Z,89.20
2023-02-17T06:26:58.521Z,90.64
2023-02-17T06:29:25.863Z,89.28
2023-02-17T06:31:53.205Z,90.28
2023-02-17T06:34:20.587Z,89.24
2023-02-17T06:36:47.866Z,88.37
2023-02-17T06:39:15.199Z,87.74
2023-02-17T06:41:42.934Z,87.24
2023-02-17T06:44:10.566Z,85.56
2023-02-17T06:46:37.832Z,84.34
2023-02-17T06:49:06.234Z,83.18
2023-02-17T06:51:33.504Z,82.93
2023-02-17T06:54:00.763Z,81.96
2023-02-17T06:56:27.997Z,81.84
2023-02-17T06:58:55.204Z,81.77
2023-02-17T07:01:28.596Z,80.91
2023-02-17T07:03:57.167Z,80.55
2023-02-17T07:06:25.777Z,79.87
2023-02-17T07:08:53.476Z,78.01
2023-02-17T07:11:21.231Z,78.05
2023-02-17T07:13:48.651Z,77.82
2023-02-17T07:16:16.348Z,76.18
2023-02-17T07:18:43.975Z,75.53
2023-02-17T07:21:12.000Z,76.37
2023-02-17T07:23:39.781Z,77.77
2023-02-17T07:26:12.162Z,78.14
2023-02-17T07:28:40.974Z,78.03
2023-02-17T07:31:17.375Z,77.01
2023-02-17T07:33:45.760Z,75.61
2023-02-17T07:36:16.851Z,72.55
2023-02-17T07:38:44.556Z,73.20
2023-02-17T07:41:21.459Z,72.55
2023-02-17T07:43:49.432Z,73.23
2023-02-17T07:46:19.747Z,74.30
2023-02-17T07:48:57.632Z,75.28
2023-02-17T07:51:25.254Z,76.03
2023-02-17T07:53:53.625Z,77.43
2023-02-17T07:56:23.363Z,77.73
2023-02-17T07:58:51.103Z,78.57
2023-02-17T08:01:23.453Z,78.46
2023-02-17T08:03:52.328Z,78.40
2023-02-17T08:06:23.356Z,77.81
2023-02-17T08:09:11.769Z,78.45
2023-02-17T08:11:58.126Z,79.13
2023-02-17T08:14:28.292Z,78.53
2023-02-17T08:16:56.312Z,79.18
2023-02-17T08:19:24.251Z,78.79
2023-02-17T08:22:01.431Z,77.92
2023-02-17T08:24:31.384Z,80.02
2023-02-17T08:27:05.290Z,78.50
2023-02-17T08:29:32.663Z,78.44
2023-02-17T08:31:59.988Z,78.83
2023-02-17T08:34:33.802Z,79.58
2023-02-17T08:37:02.522Z,81.51
2023-02-17T08:39:30.113Z,83.94
2023-02-17T08:41:58.875Z,85.33
2023-02-17T08:44:28.982Z,90.98
2023-02-17T08:46:56.480Z,92.73
2023-02-17T08:49:26.089Z,96.22
2023-02-17T08:51:53.958Z,99.46
2023-02-17T08:54:21.157Z,99.56
2023-02-17T08:56:48.517Z,100.00
2023-02-17T08:59:16.009Z,100.00
2023-02-17T09:01:44.139Z,100.00
2023-02-17T09:04:13.966Z,100.00
2023-02-17T09:06:49.110Z,100.00
2023-02-17T09:09:22.715Z,100.00
2023-02-17T09:11:50.469Z,100.00
2023-02-17T09:14:17.768Z,100.00
2023-02-17T09:16:45.144Z,100.00
2023-02-17T09:19:12.518Z,100.00
2023-02-17T09:21:39.788Z,100.00
2023-02-17T09:24:07.239Z,100.00
2023-02-17T09:26:36.483Z,100.00
2023-02-17T09:29:05.305Z,100.00
2023-02-17T09:31:35.906Z,100.00
2023-02-17T09:34:05.678Z,100.00
2023-02-17T09:36:38.992Z,100.00
2023-02-17T09:39:06.889Z,100.00
2023-02-17T09:41:44.817Z,100.00
2023-02-17T09:44:59.941Z,100.00
2023-02-17T09:47:40.894Z,100.00
2023-02-17T09:50:29.124Z,100.00
2023-02-17T09:53:06.839Z,100.00
2023-02-17T09:55:48.031Z,100.00
2023-02-17T09:58:43.819Z,100.00
2023-02-17T10:01:20.601Z,100.00
2023-02-17T10:04:09.120Z,100.00
2023-02-17T10:06:44.562Z,100.00
2023-02-17T10:09:22.882Z,100.00
2023-02-17T10:12:37.489Z,100.00
2023-02-17T10:15:19.364Z,100.00
2023-02-17T10:18:19.968Z,100.00
2023-02-17T10:20:59.804Z,100.00
2023-02-17T10:23:44.683Z,100.00
2023-02-17T10:27:04.047Z,100.00
2023-02-17T10:30:06.642Z,100.00
2023-02-17T10:33:20.196Z,100.00
2023-02-17T10:36:09.891Z,100.00
2023-02-17T10:39:12.510Z,100.00
2023-02-17T10:41:42.596Z,100.00
2023-02-17T10:44:21.290Z,100.00
2023-02-17T10:46:50.080Z,100.00
2023-02-17T10:49:32.965Z,100.00
2023-02-17T10:52:32.344Z,100.00
2023-02-17T10:55:34.069Z,100.00
2023-02-17T10:58:15.347Z,100.00
2023-02-17T11:00:43.292Z,100.00
2023-02-17T11:03:22.066Z,100.00
2023-02-17T11:06:02.835Z,100.00
2023-02-17T11:08:59.467Z,100.00
2023-02-17T11:11:30.749Z,100.00
2023-02-17T11:14:04.258Z,100.00
2023-02-17T11:16:52.338Z,100.00
2023-02-17T11:19:30.659Z,100.00
2023-02-17T11:22:00.687Z,100.00
2023-02-17T11:24:31.561Z,100.00
2023-02-17T11:27:25.441Z,100.00
2023-02-17T11:29:53.319Z,100.00
2023-02-17T11:32:36.250Z,100.00
2023-02-17T11:35:06.374Z,100.00
2023-02-17T11:37:38.099Z,100.00
2023-02-17T11:40:26.659Z,100.00
2023-02-17T11:43:03.079Z,100.00
2023-02-17T11:46:18.343Z,100.00
2023-02-17T11:49:06.412Z,100.00
2023-02-17T11:51:42.902Z,100.00
2023-02-17T11:55:03.399Z,100.00
2023-02-17T11:57:45.855Z,100.00
2023-02-17T12:00:15.010Z,100.00
2023-02-17T12:03:12.662Z,100.00
2023-02-17T12:05:52.000Z,100.00
2023-02-17T12:08:30.665Z,100.00
2023-02-17T12:11:00.615Z,100.00
2023-02-17T12:14:01.781Z,100.00
2023-02-17T12:16:54.583Z,100.00
2023-02-17T12:19:42.909Z,100.00
2023-02-17T12:22:18.725Z,100.00
2023-02-17T12:25:20.885Z,100.00
2023-02-17T12:28:12.638Z,100.00
2023-02-17T12:31:18.328Z,100.00
2023-02-17T12:34:20.189Z,100.00
2023-02-17T12:36:50.118Z,100.00
2023-02-17T12:39:35.184Z,100.00
2023-02-17T12:42:10.031Z,100.00
2023-02-17T12:45:06.956Z,100.00
2023-02-17T12:47:58.526Z,100.00
2023-02-17T12:50:52.164Z,100.00
2023-02-17T12:53:51.480Z,100.00
2023-02-17T12:56:51.448Z,100.00
2023-02-17T12:59:26.366Z,100.00
2023-02-17T13:02:10.568Z,100.00
2023-02-17T13:04:38.665Z,100.00
2023-02-17T13:07:39.328Z,100.00
2023-02-17T13:10:18.712Z,100.00
2023-02-17T13:13:05.794Z,100.00
2023-02-17T13:15:43.247Z,100.00
2023-02-17T13:18:28.829Z,100.00
2023-02-17T13:20:56.047Z,100.00
2023-02-17T13:23:36.594Z,100.00
2023-02-17T13:26:32.877Z,100.00
2023-02-17T13:29:19.546Z,100.00
2023-02-17T13:31:54.014Z,100.00
2023-02-17T13:34:38.774Z,100.00
2023-02-17T13:37:34.923Z,100.00
2023-02-17T13:40:26.917Z,100.00
2023-02-17T13:43:07.973Z,100.00
2023-02-17T13:45:57.395Z,100.00
2023-02-17T13:48:31.387Z,100.00
2023-02-17T13:51:03.542Z,100.00
2023-02-17T13:53:37.843Z,100.00
2023-02-17T13:56:31.823Z,100.00
2023-02-17T13:59:18.907Z,100.00
2023-02-17T14:01:47.139Z,100.00
2023-02-17T14:04:30.967Z,100.00
2023-02-17T14:07:00.380Z,100.00
2023-02-17T14:09:34.017Z,100.00
2023-02-17T14:12:21.277Z,100.00
2023-02-17T14:14:48.692Z,100.00
2023-02-17T14:17:32.633Z,100.00
2023-02-17T14:20:01.042Z,100.00
2023-02-17T14:22:32.252Z,100.00
2023-02-17T14:25:14.333Z,100.00
2023-02-17T14:27:48.808Z,100.00
2023-02-17T14:30:38.077Z,100.00
2023-02-17T14:33:18.505Z,100.00
2023-02-17T14:36:07.847Z,100.00
2023-02-17T14:38:40.723Z,100.00
2023-02-17T14:41:10.368Z,100.00
2023-02-17T14:43:37.714Z,100.00
2023-02-17T14:46:05.637Z,100.00
2023-02-17T14:48:33.172Z,100.00
2023-02-17T14:51:00.524Z,100.00
2023-02-17T14:53:33.930Z,100.00
2023-02-17T14:56:08.917Z,100.00
2023-02-17T14:58:36.429Z,100.00
2023-02-17T15:01:03.692Z,100.00
2023-02-17T15:03:31.083Z,100.00
2023-02-17T15:06:00.028Z,100.00
2023-02-17T15:08:35.982Z,100.00
2023-02-17T15:11:03.736Z,100.00
2023-02-17T15:13:32.044Z,100.00
2023-02-17T15:15:59.849Z,100.00
2023-02-17T15:18:28.133Z,100.00
2023-02-17T15:20:55.707Z,100.00
2023-02-17T15:23:26.362Z,100.00
2023-02-17T15:25:56.126Z,100.00
2023-02-17T15:28:23.770Z,100.00
2023-02-17T15:30:54.813Z,100.00
2023-02-17T15:33:24.405Z,100.00
2023-02-17T15:35:54.601Z,100.00
2023-02-17T15:38:23.960Z,100.00
2023-02-17T15:40:51.639Z,100.00
2023-02-17T15:43:22.973Z,100.00
2023-02-17T15:45:50.653Z,100.00
2023-02-17T15:48:32.918Z,100.00
2023-02-17T15:51:00.227Z,100.00
2023-02-17T15:53:32.424Z,100.00
2023-02-17T15:56:01.415Z,100.00
2023-02-17T15:58:30.416Z,100.00
2023-02-17T16:01:01.713Z,100.00
2023-02-17T16:03:29.741Z,100.00
2023-02-17T16:05:56.980Z,100.00
2023-02-17T16:08:24.303Z,100.00
2023-02-17T16:10:52.371Z,100.00
2023-02-17T16:13:19.835Z,100.00
2023-02-17T16:15:49.053Z,100.00
2023-02-17T16:18:24.442Z,100.00
2023-02-17T16:20:52.583Z,100.00
2023-02-17T16:23:20.034Z,100.00
2023-02-17T16:25:49.128Z,100.00
2023-02-17T16:28:20.397Z,100.00
2023-02-17T16:30:49.545Z,100.00
2023-02-17T16:33:18.058Z,100.00
2023-02-17T16:35:45.593Z,100.00
2023-02-17T16:38:24.104Z,100.00
2023-02-17T16:40:53.782Z,100.00
2023-02-17T16:43:26.919Z,100.00
2023-02-17T16:46:03.950Z,100.00
2023-02-17T16:48:35.531Z,100.00
2023-02-17T16:51:02.926Z,100.00
2023-02-17T16:53:30.264Z,100.00
2023-02-17T16:55:57.596Z,100.00
2023-02-17T16:58:27.236Z,100.00
2023-02-17T17:00:56.322Z,100.00
2023-02-17T17:03:23.690Z,100.00
2023-02-17T17:05:52.742Z,100.00
2023-02-17T17:08:21.695Z,100.00
2023-02-17T17:10:49.887Z,100.00
2023-02-17T17:13:17.377Z,100.00
2023-02-17T17:15:46.186Z,100.00
2023-02-17T17:18:21.217Z,100.00
2023-02-17T17:20:49.491Z,100.00
2023-02-17T17:23:18.422Z,100.00
2023-02-17T17:25:47.061Z,100.00
2023-02-17T17:28:18.678Z,100.00
2023-02-17T17:30:46.983Z,100.00
2023-02-17T17:33:14.348Z,100.00
2023-02-17T17:35:41.950Z,100.00
2023-02-17T17:38:15.470Z,100.00
2023-02-17T17:40:53.362Z,100.00
2023-02-17T17:43:23.471Z,100.00
2023-02-17T17:45:51.981Z,100.00
2023-02-17T17:48:19.522Z,100.00
2023-02-17T17:50:49.016Z,100.00
2023-02-17T17:53:16.542Z,100.00
2023-02-17T17:55:43.741Z,100.00
2023-02-17T17:58:11.183Z,100.00
2023-02-17T18:00:38.430Z,100.00
2023-02-17T18:03:05.792Z,100.00
2023-02-17T18:05:33.102Z,100.00
2023-02-17T18:08:01.332Z,100.00
2023-02-17T18:10:28.772Z,100.00
2023-02-17T18:12:56.390Z,100.00
2023-02-17T18:15:23.862Z,100.00
2023-02-17T18:17:52.684Z,100.00
2023-02-17T18:20:20.198Z,100.00
2023-02-17T18:22:47.575Z,100.00
2023-02-17T18:25:14.993Z,100.00
2023-02-17T18:27:45.746Z,100.00
2023-02-17T18:30:16.444Z,100.00
2023-02-17T18:32:44.471Z,100.00
2023-02-17T18:35:13.097Z,100.00
2023-02-17T18:37:41.589Z,100.00
2023-02-17T18:40:12.703Z,100.00
2023-02-17T18:42:42.438Z,100.00
2023-02-17T18:45:10.054Z,100.00
2023-02-17T18:47:38.052Z,100.00
2023-02-17T18:50:07.414Z,100.00
2023-02-17T18:52:36.236Z,100.00
2023-02-17T18:55:04.361Z,100.00
2023-02-17T18:57:33.279Z,100.00
2023-02-17T19:00:00.758Z,100.00
2023-02-17T19:02:28.909Z,100.00
2023-02-17T19:04:57.011Z,100.00
2023-02-17T19:07:24.254Z,100.00
2023-02-17T19:09:53.046Z,100.00
2023-02-17T19:12:20.666Z,100.00
2023-02-17T19:14:53.171Z,100.00
2023-02-17T19:17:20.693Z,100.00
2023-02-17T19:19:48.071Z,100.00
2023-02-17T19:22:15.477Z,100.00
2023-02-17T19:24:43.045Z,100.00
2023-02-17T19:27:11.703Z,100.00
2023-02-17T19:29:40.387Z,100.00
2023-02-17T19:32:08.038Z,100.00
2023-02-17T19:34:37.445Z,100.00
2023-02-17T19:37:05.354Z,100.00
2023-02-17T19:39:35.098Z,100.00
2023-02-17T19:42:03.237Z,100.00
2023-02-17T19:44:33.866Z,100.00
2023-02-17T19:47:01.326Z,100.00
2023-02-17T19:49:28.577Z,100.00
2023-02-17T19:51:55.957Z,100.00
2023-02-17T19:54:24.458Z,100.00
2023-02-17T19:56:52.364Z,100.00
2023-02-17T19:59:19.903Z,100.00
2023-02-17T20:02:12.318Z,100.00
2023-02-17T20:04:39.911Z,100.00
2023-02-17T20:07:07.156Z,100.00
2023-02-17T20:09:34.525Z,100.00
2023-02-17T20:12:01.750Z,100.00
2023-02-17T20:14:29.043Z,100.00
2023-02-17T20:16:56.544Z,100.00
2023-02-17T20:19:24.018Z,100.00
2023-02-17T20:21:51.380Z,100.00
2023-02-17T20:24:18.683Z,100.00
2023-02-17T20:26:48.508Z,100.00
2023-02-17T20:29:15.944Z,100.00
2023-02-17T20:31:43.972Z,100.00
2023-02-17T20:34:33.164Z,100.00
2023-02-17T20:37:01.457Z,100.00
2023-02-17T20:39:29.326Z,100.00
2023-02-17T20:41:57.233Z,100.00
2023-02-17T20:44:27.707Z,100.00
2023-02-17T20:46:57.232Z,100.00
2023-02-17T20:49:25.413Z,100.00
2023-02-17T20:51:52.778Z,100.00
2023-02-17T20:54:20.109Z,100.00
2023-02-17T20:56:48.663Z,100.00
2023-02-17T20:59:16.002Z,100.00
2023-02-17T21:01:43.503Z,100.00
2023-02-17T21:04:11.226Z,100.00
2023-02-17T21:06:41.316Z,100.00
2023-02-17T21:09:16.204Z,100.00
2023-02-17T21:11:44.440Z,100.00
2023-02-17T21:14:12.355Z,100.00
2023-02-17T21:16:39.667Z,100.00
2023-02-17T21:19:07.558Z,100.00
2023-02-17T21:21:35.821Z,100.00
2023-02-17T21:24:03.140Z,100.00
2023-02-17T21:26:30.526Z,100.00
2023-02-17T21:28:57.806Z,100.00
2023-02-17T21:31:28.985Z,100.00
2023-02-17T21:33:58.542Z,100.00
2023-02-17T21:36:28.685Z,100.00
2023-02-17T21:38:56.758Z,100.00
2023-02-17T21:41:26.551Z,100.00
2023-02-17T21:44:13.767Z,100.00
2023-02-17T21:46:43.005Z,100.00
2023-02-17T21:49:11.026Z,100.00
2023-02-17T21:51:39.696Z,100.00
2023-02-17T21:54:08.013Z,100.00
2023-02-17T21:56:36.493Z,100.00
2023-02-17T21:59:04.821Z,100.00
2023-02-17T22:01:32.159Z,100.00
2023-02-17T22:03:59.818Z,100.00
2023-02-17T22:06:35.793Z,100.00
2023-02-17T22:09:05.197Z,100.00
2023-02-17T22:11:36.526Z,100.00
2023-02-17T22:14:12.574Z,100.00
2023-02-17T22:16:40.347Z,100.00
2023-02-17T22:19:12.300Z,100.00
2023-02-17T22:21:39.970Z,100.00
2023-02-17T22:24:07.682Z,100.00
2023-02-17T22:26:35.049Z,100.00
2023-02-17T22:29:02.341Z,100.00
2023-02-17T22:31:31.202Z,100.00
2023-02-17T22:34:02.604Z,100.00
2023-02-17T22:36:33.639Z,100.00
2023-02-17T22:39:01.817Z,100.00
2023-02-17T22:41:29.148Z,100.00
2023-02-17T22:43:56.419Z,100.00
2023-02-17T22:46:27.167Z,100.00
2023-02-17T22:48:57.051Z,100.00
2023-02-17T22:51:31.639Z,100.00
2023-02-17T22:54:01.166Z,100.00
2023-02-17T22:56:30.007Z,100.00
2023-02-17T22:59:00.978Z,100.00
2023-02-17T23:01:31.172Z,100.00
2023-02-17T23:03:58.557Z,100.00
2023-02-17T23:06:33.135Z,100.00
2023-02-17T23:09:01.786Z,100.00
2023-02-17T23:11:49.926Z,100.00
2023-02-17T23:14:33.035Z,100.00
2023-02-17T23:17:13.128Z,100.00
2023-02-17T23:19:42.307Z,100.00
2023-02-17T23:22:16.057Z,100.00
2023-02-17T23:24:47.738Z,100.00
2023-02-17T23:27:15.219Z,100.00
2023-02-17T23:29:42.756Z,100.00
2023-02-17T23:32:10.149Z,100.00
2023-02-17T23:34:38.263Z,100.00
2023-02-17T23:37:07.604Z,100.00
2023-02-17T23:39:38.035Z,100.00
2023-02-17T23:42:05.517Z,100.00
2023-02-17T23:44:32.745Z,100.00
2023-02-17T23:46:59.928Z,100.00
2023-02-17T23:49:27.214Z,100.00
2023-02-17T23:51:54.435Z,100.00
2023-02-17T23:54:21.648Z,100.00
2023-02-17T23:56:48.875Z,100.00
2023-02-17T23:59:16.038Z,100.00
